Sunday, May 27, 2018, 1:38 PM GMT
Back to Local

CYBC, Baie Comeau, Que.

Location: , , Canada Lat: 49.133
Local Time: 1:38 PM GMT (13:38 GMT) Lon: -68.2
Time Zone: GMT Elev: 68 ft

Show me the last for .
Show Decoded

2018-05-27 13:00 METAR CYBC 271300Z AUTO 08008KT 9SM CLR 09/00 A3028 RMK SLP255 =
2018-05-27 12:00 METAR CYBC 271200Z AUTO 09007KT 9SM CLR 09/M00 A3027 RMK SLP253 =
2018-05-27 11:00 METAR CYBC 271100Z AUTO 07006KT 9SM CLR 08/M01 A3026 RMK SLP250 =
2018-05-27 10:00 METAR CYBC 271000Z AUTO 35003KT 9SM CLR 04/M00 A3026 RMK SLP250 =
2018-05-27 09:00 METAR CYBC 270900Z AUTO 35003KT 9SM CLR M01/M02 A3025 RMK SLP246 =
2018-05-27 08:00 METAR CYBC 270800Z AUTO 34003KT 9SM CLR M01/M02 A3023 RMK SLP240 =
2018-05-27 07:00 METAR CYBC 270700Z AUTO 33002KT 9SM CLR M01/M02 A3022 RMK SLP236 =
2018-05-27 06:00 METAR CYBC 270600Z AUTO 36004KT 9SM CLR M01/M02 A3021 RMK SLP231 =
2018-05-27 05:00 METAR CYBC 270500Z AUTO 36002KT 9SM CLR 00/M01 A3019 RMK SLP225 =
2018-05-27 04:00 METAR CYBC 270400Z AUTO 06003KT 9SM CLR 03/01 A3017 RMK SLP219 =
2018-05-27 03:00 METAR CYBC 270300Z AUTO 00000KT 9SM CLR 05/01 A3014 RMK SLP210 =
2018-05-27 02:00 METAR CYBC 270200Z AUTO 06002KT 9SM CLR 04/00 A3012 RMK SLP202 =
2018-05-27 01:00 METAR CYBC 270100Z AUTO 00000KT 9SM CLR 07/00 A3010 RMK SLP193 =
2018-05-27 00:00 METAR CYBC 270000Z AUTO 14002KT 9SM CLR 12/M02 A3006 RMK SLP180 =
2018-05-26 23:00 METAR CYBC 262300Z AUTO 03006KT 9SM CLR 15/M05 A3002 RMK SLP167 =
2018-05-26 22:00 METAR CYBC 262200Z AUTO 03010KT 320V040 9SM FEW080 16/M05 A2999 RMK SLP157 =
2018-05-26 21:00 METAR CYBC 262100Z AUTO 01011G17KT 9SM CLR 16/M04 A2997 RMK SLP149 DENSITY ALT
                 100FT =
2018-05-26 20:00 METAR CYBC 262000Z AUTO 02013G19KT 340V050 9SM CLR 16/M04 A2994 RMK SLP141
                 DENSITY ALT 100FT =
2018-05-26 19:00 METAR CYBC 261900Z AUTO 35009G18KT 330V030 9SM BKN075 15/M04 A2991 RMK SLP132 =
2018-05-26 18:00 METAR CYBC 261800Z AUTO 36008G17KT 300V050 9SM SCT075 15/M04 A2989 RMK SLP122
                 DENSITY ALT 100FT =
2018-05-26 17:00 METAR CYBC 261700Z AUTO 34007G20KT 290V020 9SM BKN070 14/M05 A2987 RMK SLP117 =
2018-05-26 16:00 METAR CYBC 261600Z AUTO 36013G20KT 320V020 9SM CLR 14/M04 A2985 RMK SLP110 =
2018-05-26 15:00 METAR CYBC 261500Z AUTO 34010G19KT 300V010 9SM OVC060 13/M02 A2983 RMK SLP103 =
2018-05-26 14:00 METAR CYBC 261400Z AUTO 36009KT 300V030 9SM SCT055 11/M01 A2981 RMK SLP096 =

Support USWX by starting your Amazon purchase here.